Terminal Aerodrome Forecast
Issued by NWS

Home | Current Version | Previous Version | Text Only | Print | Product List | Glossary Off
Versions: 1 2 3 4 5 6 7 8 9 10 11 12 13 14 15 16 17 18

000
FTUS43 KICT 270406 AAA
TAFCNU
TAF AMD
KCNU 270406Z 2704/2724 31007KT P6SM VCSH OVC015
     FM271000 33010KT P6SM OVC015
     FM271300 33012KT P6SM BKN025=

USA.gov is the U.S. government's official web portal to all federal, state and local government web resources and services.